Brevig Mission Airport, AK

6:06 PM AKDT on September 14, 2014 (GMT -0800)
Brevig Mission Airport | Change Station
CLOSE
Current Station
Airport
Location: Brevig Mission Airport,
Elevation: 39 ft
Nearby Weather Stations

Elev 39 ft 65.33 °N, 166.47 °W | Updated 5 hours ago

Clear
Clear
50 °F
Feels Like 50 °F
N
15
Wind Variable Wind from East

Today
High -- | Low -- °F
--% Chance of Precip.
Yesterday
High -- | Low -- °F
Precip. -- in
8:24 AM 9:35 PM
Waning Gibbous, 60% visible
Pressure 29.58 in
Visibility 10.0 miles
Clouds Clear
Dew Point 45 °F
Humidity 82%
Rainfall 0.00 in
Snow Depth 1 in , 1 in , 6 in
UV 2 out of 12
Pollen Not available.
Air Quality Not available.
Flu Activity Not available.
METAR PFKT 142100Z 09013KT 10SM CLR 10/07 A2958 RMK VIA PHONE

More Conditions Fewer Conditions

Pressure 29.58 in
Visibility 10.0 miles
Clouds Clear
Dew Point 45 °F
Humidity 82%
Rainfall 0.00 in
Snow Depth 1 in , 1 in , 6 in
UV 2 out of 12
Pollen Not available.
Air Quality Not available.
Flu Activity Not available.
METAR PFKT 142100Z 09013KT 10SM CLR 10/07 A2958 RMK VIA PHONE

More Conditions Fewer Conditions

10-Day Weather Forecast

Almanac

Astronomy

Sep. 14, 2014 Rise Set
Actual Time 8:24 AM AKDT 9:35 PM AKDT
Civil Twilight 7:33 AM AKDT 10:27 PM AKDT
Nautical Twilight 6:26 AM AKDT 11:32 PM AKDT
Astronomical Twilight 5:00 AM AKDT 12:56 AM AKDT
Moon 11:16 PM AKDT (9/14) 5:04 PM AKDT (9/14)
Length of Visible Light 14h 53m
Length of Day
13h 11m
Tomorrow will be 6m 47s shorter.
Waning Gibbous, 60% of the Moon is Illuminated
Today
Waning Gibbous
Sep 15
Last Quarter
Sep 24
New
Oct 1
First Quarter
Oct 8
Full

Today's Extremes

State Highs State Lows

Community

WunderPhotos

Upload Photos

1,753,371 photos uploaded!

Nearby

Snow Depth

Station Depth Elevation
Fort Yukon 1 in 430 ft
Mcneil Canyon 1 in 1320 ft
Atigun Pass 6 in 4800 ft
Grandview 1 in 1100 ft
Imnaviat Creek 0 in 3050 ft

Earthquake Activity

City Distance Mag. Time & Date
No recent earthquake activity has been reported nearby.
Minimum magnitude displayed is 2.5.

Coastal Water Temperatures

Place Temperature
No Stations Reporting

Nearby Weather Stations